Terminal Aerodrome Forecast
Issued by NWS Duluth, MN

Home | Current Version | Previous Version | Text Only | Print | Product List | Glossary On
Versions: 1 2 3 4 5 6 7 8 9 10 11 12 13 14 15 16 17 18 19 20 21 22
000
FTUS43 KDLH 171300 AAA
TAFDLH
TAF AMD
KDLH 171348Z 1714/1812 34011KT P6SM VCSH OVC012
      TEMPO 1714/1716 BKN008 OVC012
     FM171600 36012G24KT P6SM VCSH BKN015
     FM180100 35012KT P6SM BKN025=

USA.gov is the U.S. government's official web portal to all federal, state and local government web resources and services.